sensor_id;sensor_type;location;lat;lon;timestamp;P1;durP1;ratioP1;P2;durP2;ratioP2
54921;SDS011;40824;45.116;21.296;2022-12-18T00:01:21;57.03;;;32.45;;
54921;SDS011;40824;45.116;21.296;2022-12-18T00:07:00;48.90;;;29.58;;
54921;SDS011;40824;45.116;21.296;2022-12-18T00:09:38;53.50;;;28.65;;
54921;SDS011;40824;45.116;21.296;2022-12-18T00:12:04;55.33;;;32.63;;
54921;SDS011;40824;45.116;21.296;2022-12-18T00:14:48;54.90;;;32.17;;
54921;SDS011;40824;45.116;21.296;2022-12-18T00:17:17;53.63;;;31.52;;
54921;SDS011;40824;45.116;21.296;2022-12-18T00:19:59;52.53;;;29.55;;
54921;SDS011;40824;45.116;21.296;2022-12-18T00:22:28;52.72;;;32.25;;
54921;SDS011;40824;45.116;21.296;2022-12-18T00:24:57;50.90;;;30.65;;
54921;SDS011;40824;45.116;21.296;2022-12-18T00:27:23;52.92;;;31.13;;
54921;SDS011;40824;45.116;21.296;2022-12-18T00:29:49;55.97;;;33.17;;
54921;SDS011;40824;45.116;21.296;2022-12-18T00:32:16;57.50;;;31.70;;
54921;SDS011;40824;45.116;21.296;2022-12-18T00:34:47;54.35;;;32.53;;
54921;SDS011;40824;45.116;21.296;2022-12-18T00:37:22;52.80;;;30.92;;
54921;SDS011;40824;45.116;21.296;2022-12-18T00:39:48;53.10;;;32.15;;
54921;SDS011;40824;45.116;21.296;2022-12-18T00:42:14;52.15;;;31.50;;
54921;SDS011;40824;45.116;21.296;2022-12-18T00:44:59;54.70;;;32.22;;
54921;SDS011;40824;45.116;21.296;2022-12-18T00:47:29;56.88;;;31.98;;
54921;SDS011;40824;45.116;21.296;2022-12-18T00:49:58;56.25;;;31.20;;
54921;SDS011;40824;45.116;21.296;2022-12-18T00:55:16;52.42;;;30.85;;
54921;SDS011;40824;45.116;21.296;2022-12-18T00:57:49;55.67;;;31.10;;
54921;SDS011;40824;45.116;21.296;2022-12-18T01:00:22;52.83;;;30.60;;
54921;SDS011;40824;45.116;21.296;2022-12-18T01:02:51;57.53;;;32.22;;
54921;SDS011;40824;45.116;21.296;2022-12-18T01:05:25;57.70;;;31.63;;
54921;SDS011;40824;45.116;21.296;2022-12-18T01:08:00;48.95;;;28.83;;
54921;SDS011;40824;45.116;21.296;2022-12-18T01:10:27;55.13;;;31.00;;
54921;SDS011;40824;45.116;21.296;2022-12-18T01:13:08;59.10;;;32.00;;
54921;SDS011;40824;45.116;21.296;2022-12-18T01:15:52;53.20;;;30.00;;
54921;SDS011;40824;45.116;21.296;2022-12-18T01:18:22;58.05;;;32.75;;
54921;SDS011;40824;45.116;21.296;2022-12-18T01:20:48;56.20;;;31.50;;
54921;SDS011;40824;45.116;21.296;2022-12-18T01:23:20;52.35;;;30.98;;
54921;SDS011;40824;45.116;21.296;2022-12-18T01:25:55;54.35;;;30.90;;
54921;SDS011;40824;45.116;21.296;2022-12-18T01:28:21;56.72;;;33.13;;
54921;SDS011;40824;45.116;21.296;2022-12-18T01:30:50;54.65;;;30.92;;
54921;SDS011;40824;45.116;21.296;2022-12-18T01:33:28;50.60;;;29.70;;
54921;SDS011;40824;45.116;21.296;2022-12-18T01:35:54;53.65;;;30.05;;
54921;SDS011;40824;45.116;21.296;2022-12-18T01:38:20;54.67;;;30.85;;
54921;SDS011;40824;45.116;21.296;2022-12-18T01:40:47;55.35;;;30.92;;
54921;SDS011;40824;45.116;21.296;2022-12-18T01:43:13;54.55;;;30.70;;
54921;SDS011;40824;45.116;21.296;2022-12-18T01:45:42;56.83;;;30.52;;
54921;SDS011;40824;45.116;21.296;2022-12-18T01:48:14;55.60;;;31.20;;
54921;SDS011;40824;45.116;21.296;2022-12-18T01:50:41;58.70;;;32.83;;
54921;SDS011;40824;45.116;21.296;2022-12-18T01:53:17;56.33;;;31.23;;
54921;SDS011;40824;45.116;21.296;2022-12-18T01:55:48;55.92;;;31.55;;
54921;SDS011;40824;45.116;21.296;2022-12-18T01:58:21;53.72;;;30.35;;
54921;SDS011;40824;45.116;21.296;2022-12-18T02:00:58;50.47;;;29.40;;
54921;SDS011;40824;45.116;21.296;2022-12-18T02:03:30;52.80;;;30.13;;
54921;SDS011;40824;45.116;21.296;2022-12-18T02:14:07;55.05;;;29.08;;
54921;SDS011;40824;45.116;21.296;2022-12-18T02:22:21;55.53;;;31.25;;
54921;SDS011;40824;45.116;21.296;2022-12-18T02:28:00;53.50;;;30.13;;
54921;SDS011;40824;45.116;21.296;2022-12-18T02:30:28;55.75;;;31.23;;
54921;SDS011;40824;45.116;21.296;2022-12-18T02:33:04;55.15;;;31.25;;
54921;SDS011;40824;45.116;21.296;2022-12-18T02:36:00;55.22;;;30.63;;
54921;SDS011;40824;45.116;21.296;2022-12-18T02:41:18;55.00;;;31.30;;
54921;SDS011;40824;45.116;21.296;2022-12-18T02:43:53;53.17;;;30.73;;
54921;SDS011;40824;45.116;21.296;2022-12-18T02:46:28;54.58;;;30.77;;
54921;SDS011;40824;45.116;21.296;2022-12-18T02:49:06;56.08;;;31.58;;
54921;SDS011;40824;45.116;21.296;2022-12-18T02:51:55;58.13;;;31.17;;
54921;SDS011;40824;45.116;21.296;2022-12-18T02:57:15;54.53;;;29.83;;
54921;SDS011;40824;45.116;21.296;2022-12-18T03:00:04;57.92;;;30.63;;
54921;SDS011;40824;45.116;21.296;2022-12-18T03:08:42;58.05;;;31.13;;
54921;SDS011;40824;45.116;21.296;2022-12-18T03:14:02;57.50;;;30.25;;
54921;SDS011;40824;45.116;21.296;2022-12-18T03:16:29;57.45;;;31.42;;
54921;SDS011;40824;45.116;21.296;2022-12-18T03:19:16;53.42;;;29.50;;
54921;SDS011;40824;45.116;21.296;2022-12-18T03:22:23;54.28;;;29.60;;
54921;SDS011;40824;45.116;21.296;2022-12-18T03:25:12;59.03;;;32.22;;
54921;SDS011;40824;45.116;21.296;2022-12-18T03:27:40;57.63;;;32.25;;
54921;SDS011;40824;45.116;21.296;2022-12-18T03:30:09;59.65;;;31.98;;
54921;SDS011;40824;45.116;21.296;2022-12-18T03:32:51;57.90;;;30.50;;
54921;SDS011;40824;45.116;21.296;2022-12-18T03:38:42;55.90;;;31.63;;
54921;SDS011;40824;45.116;21.296;2022-12-18T03:46:59;59.55;;;32.17;;
54921;SDS011;40824;45.116;21.296;2022-12-18T03:52:19;60.42;;;31.50;;
54921;SDS011;40824;45.116;21.296;2022-12-18T03:54:46;59.08;;;32.55;;
54921;SDS011;40824;45.116;21.296;2022-12-18T03:57:14;63.83;;;32.72;;
54921;SDS011;40824;45.116;21.296;2022-12-18T03:59:49;57.50;;;30.40;;
54921;SDS011;40824;45.116;21.296;2022-12-18T04:05:19;57.45;;;29.63;;
54921;SDS011;40824;45.116;21.296;2022-12-18T04:07:54;53.15;;;30.00;;
54921;SDS011;40824;45.116;21.296;2022-12-18T04:10:23;59.47;;;31.40;;
54921;SDS011;40824;45.116;21.296;2022-12-18T04:15:37;58.17;;;30.27;;
54921;SDS011;40824;45.116;21.296;2022-12-18T04:18:15;56.78;;;31.25;;
54921;SDS011;40824;45.116;21.296;2022-12-18T04:20:59;57.70;;;33.03;;
54921;SDS011;40824;45.116;21.296;2022-12-18T04:26:44;57.80;;;30.17;;
54921;SDS011;40824;45.116;21.296;2022-12-18T04:29:13;56.50;;;30.13;;
54921;SDS011;40824;45.116;21.296;2022-12-18T04:41:11;56.70;;;29.38;;
54921;SDS011;40824;45.116;21.296;2022-12-18T04:43:37;57.28;;;30.85;;
54921;SDS011;40824;45.116;21.296;2022-12-18T04:46:04;60.67;;;30.75;;
54921;SDS011;40824;45.116;21.296;2022-12-18T04:48:31;58.28;;;30.98;;
54921;SDS011;40824;45.116;21.296;2022-12-18T04:57:06;58.47;;;30.60;;
54921;SDS011;40824;45.116;21.296;2022-12-18T05:02:25;55.90;;;31.70;;
54921;SDS011;40824;45.116;21.296;2022-12-18T05:05:04;58.05;;;31.35;;
54921;SDS011;40824;45.116;21.296;2022-12-18T05:13:02;59.47;;;31.35;;
54921;SDS011;40824;45.116;21.296;2022-12-18T05:15:29;61.45;;;32.40;;
54921;SDS011;40824;45.116;21.296;2022-12-18T05:20:48;63.00;;;33.45;;
54921;SDS011;40824;45.116;21.296;2022-12-18T05:23:21;60.45;;;32.60;;
54921;SDS011;40824;45.116;21.296;2022-12-18T05:25:53;60.70;;;32.00;;
54921;SDS011;40824;45.116;21.296;2022-12-18T05:28:26;62.00;;;32.92;;
54921;SDS011;40824;45.116;21.296;2022-12-18T05:30:56;58.65;;;32.47;;
54921;SDS011;40824;45.116;21.296;2022-12-18T05:33:23;62.35;;;32.95;;
54921;SDS011;40824;45.116;21.296;2022-12-18T05:36:03;62.17;;;32.08;;
54921;SDS011;40824;45.116;21.296;2022-12-18T05:39:08;60.65;;;32.20;;
54921;SDS011;40824;45.116;21.296;2022-12-18T05:41:42;62.35;;;32.60;;
54921;SDS011;40824;45.116;21.296;2022-12-18T05:44:22;59.70;;;31.73;;
54921;SDS011;40824;45.116;21.296;2022-12-18T05:46:48;65.32;;;33.60;;
54921;SDS011;40824;45.116;21.296;2022-12-18T05:49:16;60.03;;;31.88;;
54921;SDS011;40824;45.116;21.296;2022-12-18T05:52:03;60.15;;;32.85;;
54921;SDS011;40824;45.116;21.296;2022-12-18T05:54:31;59.05;;;32.40;;
54921;SDS011;40824;45.116;21.296;2022-12-18T05:57:24;61.20;;;32.25;;
54921;SDS011;40824;45.116;21.296;2022-12-18T06:03:04;63.40;;;34.90;;
54921;SDS011;40824;45.116;21.296;2022-12-18T06:08:35;61.33;;;32.58;;
54921;SDS011;40824;45.116;21.296;2022-12-18T06:11:12;60.95;;;32.53;;
54921;SDS011;40824;45.116;21.296;2022-12-18T06:20:00;60.80;;;31.80;;
54921;SDS011;40824;45.116;21.296;2022-12-18T06:22:39;61.38;;;32.10;;
54921;SDS011;40824;45.116;21.296;2022-12-18T06:28:16;63.92;;;35.35;;
54921;SDS011;40824;45.116;21.296;2022-12-18T06:30:46;62.70;;;33.95;;
54921;SDS011;40824;45.116;21.296;2022-12-18T06:33:13;56.95;;;31.25;;
54921;SDS011;40824;45.116;21.296;2022-12-18T06:35:39;63.20;;;33.08;;
54921;SDS011;40824;45.116;21.296;2022-12-18T06:41:12;60.35;;;33.13;;
54921;SDS011;40824;45.116;21.296;2022-12-18T06:43:41;63.55;;;34.75;;
54921;SDS011;40824;45.116;21.296;2022-12-18T06:46:13;65.22;;;32.60;;
54921;SDS011;40824;45.116;21.296;2022-12-18T06:51:36;62.13;;;34.50;;
54921;SDS011;40824;45.116;21.296;2022-12-18T06:54:02;63.75;;;34.92;;
54921;SDS011;40824;45.116;21.296;2022-12-18T06:56:37;64.97;;;35.10;;
54921;SDS011;40824;45.116;21.296;2022-12-18T07:02:32;63.30;;;34.67;;
54921;SDS011;40824;45.116;21.296;2022-12-18T07:05:09;63.20;;;35.25;;
54921;SDS011;40824;45.116;21.296;2022-12-18T07:07:54;70.25;;;34.13;;
54921;SDS011;40824;45.116;21.296;2022-12-18T07:13:05;62.53;;;34.88;;
54921;SDS011;40824;45.116;21.296;2022-12-18T07:18:12;61.25;;;34.63;;
54921;SDS011;40824;45.116;21.296;2022-12-18T07:20:41;59.58;;;34.08;;
54921;SDS011;40824;45.116;21.296;2022-12-18T07:23:10;56.38;;;32.65;;
54921;SDS011;40824;45.116;21.296;2022-12-18T07:25:38;65.80;;;34.67;;
54921;SDS011;40824;45.116;21.296;2022-12-18T07:28:05;60.60;;;35.15;;
54921;SDS011;40824;45.116;21.296;2022-12-18T07:30:38;61.13;;;35.10;;
54921;SDS011;40824;45.116;21.296;2022-12-18T07:33:30;63.35;;;34.30;;
54921;SDS011;40824;45.116;21.296;2022-12-18T07:36:23;57.20;;;32.50;;
54921;SDS011;40824;45.116;21.296;2022-12-18T07:38:49;62.20;;;35.28;;
54921;SDS011;40824;45.116;21.296;2022-12-18T07:41:17;57.20;;;32.35;;
54921;SDS011;40824;45.116;21.296;2022-12-18T07:44:11;58.63;;;33.65;;
54921;SDS011;40824;45.116;21.296;2022-12-18T07:47:18;59.38;;;33.75;;
54921;SDS011;40824;45.116;21.296;2022-12-18T07:49:45;57.13;;;33.42;;
54921;SDS011;40824;45.116;21.296;2022-12-18T07:58:16;53.50;;;31.80;;
54921;SDS011;40824;45.116;21.296;2022-12-18T08:03:49;58.75;;;31.80;;
54921;SDS011;40824;45.116;21.296;2022-12-18T08:06:15;62.03;;;34.75;;
54921;SDS011;40824;45.116;21.296;2022-12-18T08:08:42;63.25;;;35.10;;
54921;SDS011;40824;45.116;21.296;2022-12-18T08:11:08;64.43;;;35.67;;
54921;SDS011;40824;45.116;21.296;2022-12-18T08:13:34;57.30;;;33.67;;
54921;SDS011;40824;45.116;21.296;2022-12-18T08:16:02;59.88;;;34.45;;
54921;SDS011;40824;45.116;21.296;2022-12-18T08:18:28;60.55;;;33.88;;
54921;SDS011;40824;45.116;21.296;2022-12-18T08:20:55;56.63;;;33.63;;
54921;SDS011;40824;45.116;21.296;2022-12-18T08:23:21;55.10;;;32.83;;
54921;SDS011;40824;45.116;21.296;2022-12-18T08:25:47;58.92;;;34.92;;
54921;SDS011;40824;45.116;21.296;2022-12-18T08:28:16;58.80;;;34.78;;
54921;SDS011;40824;45.116;21.296;2022-12-18T08:30:42;63.05;;;35.13;;
54921;SDS011;40824;45.116;21.296;2022-12-18T08:33:08;62.05;;;34.15;;
54921;SDS011;40824;45.116;21.296;2022-12-18T08:35:35;58.47;;;33.85;;
54921;SDS011;40824;45.116;21.296;2022-12-18T08:38:02;60.55;;;34.50;;
54921;SDS011;40824;45.116;21.296;2022-12-18T08:40:28;63.17;;;35.42;;
54921;SDS011;40824;45.116;21.296;2022-12-18T08:42:54;58.95;;;36.22;;
54921;SDS011;40824;45.116;21.296;2022-12-18T08:45:39;68.22;;;39.72;;
54921;SDS011;40824;45.116;21.296;2022-12-18T08:48:05;64.25;;;38.22;;
54921;SDS011;40824;45.116;21.296;2022-12-18T08:50:34;62.58;;;38.90;;
54921;SDS011;40824;45.116;21.296;2022-12-18T08:53:00;72.00;;;43.22;;
54921;SDS011;40824;45.116;21.296;2022-12-18T08:55:27;64.97;;;39.58;;
54921;SDS011;40824;45.116;21.296;2022-12-18T08:57:53;66.25;;;40.20;;
54921;SDS011;40824;45.116;21.296;2022-12-18T09:00:19;60.65;;;34.65;;
54921;SDS011;40824;45.116;21.296;2022-12-18T09:02:45;57.58;;;34.47;;
54921;SDS011;40824;45.116;21.296;2022-12-18T09:05:11;70.75;;;42.92;;
54921;SDS011;40824;45.116;21.296;2022-12-18T09:07:37;62.65;;;38.30;;
54921;SDS011;40824;45.116;21.296;2022-12-18T09:10:04;61.47;;;34.95;;
54921;SDS011;40824;45.116;21.296;2022-12-18T09:12:30;57.97;;;33.42;;
54921;SDS011;40824;45.116;21.296;2022-12-18T09:14:57;57.17;;;33.17;;
54921;SDS011;40824;45.116;21.296;2022-12-18T09:17:23;56.25;;;33.20;;
54921;SDS011;40824;45.116;21.296;2022-12-18T09:19:49;59.55;;;32.85;;
54921;SDS011;40824;45.116;21.296;2022-12-18T09:22:15;68.30;;;42.15;;
54921;SDS011;40824;45.116;21.296;2022-12-18T09:24:41;72.25;;;43.75;;
54921;SDS011;40824;45.116;21.296;2022-12-18T09:27:08;61.22;;;36.75;;
54921;SDS011;40824;45.116;21.296;2022-12-18T09:29:34;57.78;;;33.28;;
54921;SDS011;40824;45.116;21.296;2022-12-18T09:32:00;55.78;;;33.15;;
54921;SDS011;40824;45.116;21.296;2022-12-18T09:34:26;58.05;;;33.90;;
54921;SDS011;40824;45.116;21.296;2022-12-18T09:36:55;56.17;;;33.20;;
54921;SDS011;40824;45.116;21.296;2022-12-18T09:39:21;60.40;;;34.50;;
54921;SDS011;40824;45.116;21.296;2022-12-18T09:44:22;63.95;;;36.70;;
54921;SDS011;40824;45.116;21.296;2022-12-18T09:47:10;62.38;;;38.45;;
54921;SDS011;40824;45.116;21.296;2022-12-18T09:49:44;66.40;;;37.67;;
54921;SDS011;40824;45.116;21.296;2022-12-18T09:52:16;61.92;;;36.28;;
54921;SDS011;40824;45.116;21.296;2022-12-18T09:54:45;58.58;;;34.92;;
54921;SDS011;40824;45.116;21.296;2022-12-18T09:57:18;61.65;;;35.47;;
54921;SDS011;40824;45.116;21.296;2022-12-18T09:59:46;59.20;;;34.22;;
54921;SDS011;40824;45.116;21.296;2022-12-18T10:02:15;61.72;;;37.50;;
54921;SDS011;40824;45.116;21.296;2022-12-18T10:04:41;63.22;;;37.58;;
54921;SDS011;40824;45.116;21.296;2022-12-18T10:07:13;65.78;;;37.92;;
54921;SDS011;40824;45.116;21.296;2022-12-18T10:14:39;58.78;;;34.78;;
54921;SDS011;40824;45.116;21.296;2022-12-18T10:17:13;78.90;;;46.40;;
54921;SDS011;40824;45.116;21.296;2022-12-18T10:19:49;73.10;;;40.80;;
54921;SDS011;40824;45.116;21.296;2022-12-18T10:22:29;64.82;;;37.28;;
54921;SDS011;40824;45.116;21.296;2022-12-18T10:27:24;65.78;;;39.38;;
54921;SDS011;40824;45.116;21.296;2022-12-18T10:29:51;59.60;;;35.15;;
54921;SDS011;40824;45.116;21.296;2022-12-18T10:32:22;60.72;;;35.17;;
54921;SDS011;40824;45.116;21.296;2022-12-18T10:34:54;69.72;;;39.17;;
54921;SDS011;40824;45.116;21.296;2022-12-18T10:37:24;63.70;;;38.17;;
54921;SDS011;40824;45.116;21.296;2022-12-18T10:42:32;67.18;;;38.83;;
54921;SDS011;40824;45.116;21.296;2022-12-18T10:45:15;68.82;;;41.63;;
54921;SDS011;40824;45.116;21.296;2022-12-18T10:47:51;66.55;;;36.53;;
54921;SDS011;40824;45.116;21.296;2022-12-18T10:50:19;59.08;;;35.17;;
54921;SDS011;40824;45.116;21.296;2022-12-18T10:52:52;60.55;;;35.00;;
54921;SDS011;40824;45.116;21.296;2022-12-18T10:55:19;64.88;;;36.15;;
54921;SDS011;40824;45.116;21.296;2022-12-18T10:57:45;63.75;;;36.40;;
54921;SDS011;40824;45.116;21.296;2022-12-18T11:00:28;65.32;;;38.28;;
54921;SDS011;40824;45.116;21.296;2022-12-18T11:02:54;65.68;;;39.53;;
54921;SDS011;40824;45.116;21.296;2022-12-18T11:05:29;64.85;;;36.72;;
54921;SDS011;40824;45.116;21.296;2022-12-18T11:07:56;64.88;;;36.33;;
54921;SDS011;40824;45.116;21.296;2022-12-18T11:10:44;66.28;;;36.63;;
54921;SDS011;40824;45.116;21.296;2022-12-18T11:13:17;67.50;;;38.22;;
54921;SDS011;40824;45.116;21.296;2022-12-18T11:15:45;70.63;;;39.30;;
54921;SDS011;40824;45.116;21.296;2022-12-18T11:18:16;72.07;;;40.60;;
54921;SDS011;40824;45.116;21.296;2022-12-18T11:20:43;58.60;;;35.58;;
54921;SDS011;40824;45.116;21.296;2022-12-18T11:23:15;60.28;;;36.50;;
54921;SDS011;40824;45.116;21.296;2022-12-18T11:25:41;59.13;;;35.03;;
54921;SDS011;40824;45.116;21.296;2022-12-18T11:33:37;68.25;;;42.28;;
54921;SDS011;40824;45.116;21.296;2022-12-18T11:36:05;62.47;;;37.58;;
54921;SDS011;40824;45.116;21.296;2022-12-18T11:38:34;63.80;;;37.40;;
54921;SDS011;40824;45.116;21.296;2022-12-18T11:41:16;63.80;;;37.90;;
54921;SDS011;40824;45.116;21.296;2022-12-18T11:43:50;60.80;;;36.97;;
54921;SDS011;40824;45.116;21.296;2022-12-18T11:46:19;59.42;;;35.50;;
54921;SDS011;40824;45.116;21.296;2022-12-18T11:48:54;68.82;;;39.78;;
54921;SDS011;40824;45.116;21.296;2022-12-18T11:51:28;67.25;;;39.38;;
54921;SDS011;40824;45.116;21.296;2022-12-18T11:53:57;57.88;;;34.95;;
54921;SDS011;40824;45.116;21.296;2022-12-18T11:56:32;63.92;;;38.03;;
54921;SDS011;40824;45.116;21.296;2022-12-18T12:01:48;62.97;;;36.35;;
54921;SDS011;40824;45.116;21.296;2022-12-18T12:09:30;62.80;;;37.83;;
54921;SDS011;40824;45.116;21.296;2022-12-18T12:17:18;61.17;;;34.90;;
54921;SDS011;40824;45.116;21.296;2022-12-18T12:28:09;64.20;;;38.97;;
54921;SDS011;40824;45.116;21.296;2022-12-18T12:38:26;60.65;;;35.03;;
54921;SDS011;40824;45.116;21.296;2022-12-18T12:40:56;63.80;;;36.28;;
54921;SDS011;40824;45.116;21.296;2022-12-18T12:46:06;75.38;;;41.17;;
54921;SDS011;40824;45.116;21.296;2022-12-18T12:50:59;67.25;;;37.85;;
54921;SDS011;40824;45.116;21.296;2022-12-18T12:53:27;65.90;;;37.65;;
54921;SDS011;40824;45.116;21.296;2022-12-18T12:55:55;63.67;;;36.78;;
54921;SDS011;40824;45.116;21.296;2022-12-18T12:58:33;64.38;;;36.92;;
54921;SDS011;40824;45.116;21.296;2022-12-18T13:06:36;79.20;;;45.25;;
54921;SDS011;40824;45.116;21.296;2022-12-18T13:09:05;67.50;;;38.50;;
54921;SDS011;40824;45.116;21.296;2022-12-18T13:11:35;72.28;;;40.08;;
54921;SDS011;40824;45.116;21.296;2022-12-18T13:14:22;74.88;;;40.80;;
54921;SDS011;40824;45.116;21.296;2022-12-18T13:16:49;59.80;;;33.53;;
54921;SDS011;40824;45.116;21.296;2022-12-18T13:19:22;61.80;;;34.60;;
54921;SDS011;40824;45.116;21.296;2022-12-18T13:21:54;57.72;;;32.85;;
54921;SDS011;40824;45.116;21.296;2022-12-18T13:24:25;62.85;;;35.95;;
54921;SDS011;40824;45.116;21.296;2022-12-18T13:26:52;62.75;;;35.72;;
54921;SDS011;40824;45.116;21.296;2022-12-18T13:32:20;59.83;;;35.38;;
54921;SDS011;40824;45.116;21.296;2022-12-18T13:34:47;68.85;;;38.63;;
54921;SDS011;40824;45.116;21.296;2022-12-18T13:39:58;76.90;;;40.47;;
54921;SDS011;40824;45.116;21.296;2022-12-18T13:47:58;69.00;;;39.40;;
54921;SDS011;40824;45.116;21.296;2022-12-18T13:50:27;67.45;;;39.80;;
54921;SDS011;40824;45.116;21.296;2022-12-18T13:52:53;64.47;;;37.33;;
54921;SDS011;40824;45.116;21.296;2022-12-18T13:55:19;67.32;;;38.33;;
54921;SDS011;40824;45.116;21.296;2022-12-18T13:57:46;72.40;;;41.30;;
54921;SDS011;40824;45.116;21.296;2022-12-18T14:02:48;71.65;;;40.67;;
54921;SDS011;40824;45.116;21.296;2022-12-18T14:05:31;81.57;;;42.03;;
54921;SDS011;40824;45.116;21.296;2022-12-18T14:08:15;84.88;;;47.55;;
54921;SDS011;40824;45.116;21.296;2022-12-18T14:10:45;84.30;;;45.42;;
54921;SDS011;40824;45.116;21.296;2022-12-18T14:13:16;88.70;;;47.15;;
54921;SDS011;40824;45.116;21.296;2022-12-18T14:15:45;87.63;;;46.03;;
54921;SDS011;40824;45.116;21.296;2022-12-18T14:20:47;87.65;;;46.75;;
54921;SDS011;40824;45.116;21.296;2022-12-18T14:23:26;88.28;;;47.13;;
54921;SDS011;40824;45.116;21.296;2022-12-18T14:25:53;81.40;;;46.05;;
54921;SDS011;40824;45.116;21.296;2022-12-18T14:28:19;87.07;;;46.55;;
54921;SDS011;40824;45.116;21.296;2022-12-18T14:30:49;84.82;;;47.53;;
54921;SDS011;40824;45.116;21.296;2022-12-18T14:33:25;91.70;;;51.20;;
54921;SDS011;40824;45.116;21.296;2022-12-18T14:35:57;90.07;;;50.13;;
54921;SDS011;40824;45.116;21.296;2022-12-18T14:41:02;98.30;;;52.17;;
54921;SDS011;40824;45.116;21.296;2022-12-18T14:43:36;85.95;;;48.53;;
54921;SDS011;40824;45.116;21.296;2022-12-18T14:46:03;92.13;;;49.27;;
54921;SDS011;40824;45.116;21.296;2022-12-18T14:51:16;84.68;;;46.35;;
54921;SDS011;40824;45.116;21.296;2022-12-18T14:54:05;82.50;;;46.05;;
54921;SDS011;40824;45.116;21.296;2022-12-18T15:02:46;83.47;;;45.35;;
54921;SDS011;40824;45.116;21.296;2022-12-18T15:07:42;91.82;;;52.40;;
54921;SDS011;40824;45.116;21.296;2022-12-18T15:10:19;84.82;;;48.70;;
54921;SDS011;40824;45.116;21.296;2022-12-18T15:12:50;100.40;;;54.67;;
54921;SDS011;40824;45.116;21.296;2022-12-18T15:25:45;126.60;;;78.18;;
54921;SDS011;40824;45.116;21.296;2022-12-18T15:28:48;121.57;;;71.93;;
54921;SDS011;40824;45.116;21.296;2022-12-18T15:33:42;84.38;;;49.15;;
54921;SDS011;40824;45.116;21.296;2022-12-18T15:39:19;89.03;;;49.63;;
54921;SDS011;40824;45.116;21.296;2022-12-18T15:41:54;94.25;;;54.30;;
54921;SDS011;40824;45.116;21.296;2022-12-18T15:44:42;89.75;;;51.25;;
54921;SDS011;40824;45.116;21.296;2022-12-18T15:47:10;96.68;;;52.42;;
54921;SDS011;40824;45.116;21.296;2022-12-18T15:49:37;92.47;;;50.60;;
54921;SDS011;40824;45.116;21.296;2022-12-18T15:52:04;102.13;;;60.80;;
54921;SDS011;40824;45.116;21.296;2022-12-18T15:54:30;97.70;;;55.33;;
54921;SDS011;40824;45.116;21.296;2022-12-18T15:57:20;87.10;;;50.78;;
54921;SDS011;40824;45.116;21.296;2022-12-18T16:00:16;88.40;;;50.08;;
54921;SDS011;40824;45.116;21.296;2022-12-18T16:02:42;82.95;;;46.88;;
54921;SDS011;40824;45.116;21.296;2022-12-18T16:05:11;75.13;;;42.17;;
54921;SDS011;40824;45.116;21.296;2022-12-18T16:07:40;82.90;;;48.05;;
54921;SDS011;40824;45.116;21.296;2022-12-18T16:10:15;117.90;;;64.40;;
54921;SDS011;40824;45.116;21.296;2022-12-18T16:12:41;88.25;;;48.70;;
54921;SDS011;40824;45.116;21.296;2022-12-18T16:15:12;119.03;;;68.20;;
54921;SDS011;40824;45.116;21.296;2022-12-18T16:17:52;107.78;;;63.10;;
54921;SDS011;40824;45.116;21.296;2022-12-18T16:23:30;86.78;;;47.72;;
54921;SDS011;40824;45.116;21.296;2022-12-18T16:29:27;84.07;;;47.20;;
54921;SDS011;40824;45.116;21.296;2022-12-18T16:35:32;76.82;;;45.72;;
54921;SDS011;40824;45.116;21.296;2022-12-18T16:38:20;126.63;;;68.65;;
54921;SDS011;40824;45.116;21.296;2022-12-18T16:44:08;83.68;;;46.85;;
54921;SDS011;40824;45.116;21.296;2022-12-18T16:46:35;89.97;;;50.50;;
54921;SDS011;40824;45.116;21.296;2022-12-18T16:49:04;99.28;;;55.70;;
54921;SDS011;40824;45.116;21.296;2022-12-18T16:51:51;83.75;;;45.55;;
54921;SDS011;40824;45.116;21.296;2022-12-18T16:54:19;78.65;;;44.75;;
54921;SDS011;40824;45.116;21.296;2022-12-18T16:57:00;95.70;;;53.75;;
54921;SDS011;40824;45.116;21.296;2022-12-18T17:05:43;82.85;;;47.55;;
54921;SDS011;40824;45.116;21.296;2022-12-18T17:08:12;88.25;;;51.22;;
54921;SDS011;40824;45.116;21.296;2022-12-18T17:10:38;85.07;;;50.17;;
54921;SDS011;40824;45.116;21.296;2022-12-18T17:16:19;82.55;;;50.35;;
54921;SDS011;40824;45.116;21.296;2022-12-18T17:18:46;89.82;;;50.70;;
54921;SDS011;40824;45.116;21.296;2022-12-18T17:21:35;87.07;;;48.53;;
54921;SDS011;40824;45.116;21.296;2022-12-18T17:24:02;102.57;;;59.40;;
54921;SDS011;40824;45.116;21.296;2022-12-18T17:29:47;104.60;;;60.63;;
54921;SDS011;40824;45.116;21.296;2022-12-18T17:32:40;89.90;;;52.10;;
54921;SDS011;40824;45.116;21.296;2022-12-18T17:35:23;82.97;;;48.30;;
54921;SDS011;40824;45.116;21.296;2022-12-18T17:37:58;83.45;;;47.83;;
54921;SDS011;40824;45.116;21.296;2022-12-18T17:40:42;77.93;;;44.65;;
54921;SDS011;40824;45.116;21.296;2022-12-18T17:43:09;90.03;;;50.28;;
54921;SDS011;40824;45.116;21.296;2022-12-18T17:45:50;139.98;;;83.00;;
54921;SDS011;40824;45.116;21.296;2022-12-18T17:48:29;83.00;;;47.80;;
54921;SDS011;40824;45.116;21.296;2022-12-18T17:51:10;73.85;;;43.70;;
54921;SDS011;40824;45.116;21.296;2022-12-18T17:53:37;89.75;;;49.55;;
54921;SDS011;40824;45.116;21.296;2022-12-18T17:56:06;91.50;;;50.03;;
54921;SDS011;40824;45.116;21.296;2022-12-18T17:58:34;78.68;;;45.25;;
54921;SDS011;40824;45.116;21.296;2022-12-18T18:01:01;73.05;;;40.45;;
54921;SDS011;40824;45.116;21.296;2022-12-18T18:03:30;77.72;;;43.17;;
54921;SDS011;40824;45.116;21.296;2022-12-18T18:05:57;92.30;;;52.70;;
54921;SDS011;40824;45.116;21.296;2022-12-18T18:08:24;81.55;;;46.90;;
54921;SDS011;40824;45.116;21.296;2022-12-18T18:10:50;84.57;;;48.35;;
54921;SDS011;40824;45.116;21.296;2022-12-18T18:13:18;79.57;;;43.58;;
54921;SDS011;40824;45.116;21.296;2022-12-18T18:16:20;78.68;;;42.83;;
54921;SDS011;40824;45.116;21.296;2022-12-18T18:18:46;82.32;;;47.47;;
54921;SDS011;40824;45.116;21.296;2022-12-18T18:21:15;81.28;;;44.63;;
54921;SDS011;40824;45.116;21.296;2022-12-18T18:23:42;82.07;;;45.95;;
54921;SDS011;40824;45.116;21.296;2022-12-18T18:26:08;93.78;;;54.65;;
54921;SDS011;40824;45.116;21.296;2022-12-18T18:28:35;207.50;;;113.47;;
54921;SDS011;40824;45.116;21.296;2022-12-18T18:31:04;175.43;;;99.18;;
54921;SDS011;40824;45.116;21.296;2022-12-18T18:33:31;155.48;;;92.60;;
54921;SDS011;40824;45.116;21.296;2022-12-18T18:36:10;107.45;;;70.88;;
54921;SDS011;40824;45.116;21.296;2022-12-18T18:41:28;81.30;;;49.83;;
54921;SDS011;40824;45.116;21.296;2022-12-18T18:43:55;92.40;;;59.25;;
54921;SDS011;40824;45.116;21.296;2022-12-18T18:46:21;85.50;;;53.88;;
54921;SDS011;40824;45.116;21.296;2022-12-18T18:48:48;83.25;;;48.40;;
54921;SDS011;40824;45.116;21.296;2022-12-18T18:51:15;70.03;;;42.80;;
54921;SDS011;40824;45.116;21.296;2022-12-18T18:53:43;72.63;;;39.90;;